sensor_id;sensor_type;location;lat;lon;timestamp;temperature;humidity
32660;DHT22;19064;47.912;12.308;2022-12-18T00:01:27;-3.70;99.90
32660;DHT22;19064;47.912;12.308;2022-12-18T00:04:00;-3.70;99.90
32660;DHT22;19064;47.912;12.308;2022-12-18T00:06:29;-3.60;99.90
32660;DHT22;19064;47.912;12.308;2022-12-18T00:08:58;-3.60;99.90
32660;DHT22;19064;47.912;12.308;2022-12-18T00:11:29;-3.60;99.90
32660;DHT22;19064;47.912;12.308;2022-12-18T00:13:59;-3.60;99.90
32660;DHT22;19064;47.912;12.308;2022-12-18T00:16:28;-3.60;99.90
32660;DHT22;19064;47.912;12.308;2022-12-18T00:19:05;-3.60;99.90
32660;DHT22;19064;47.912;12.308;2022-12-18T00:21:34;-3.60;99.90
32660;DHT22;19064;47.912;12.308;2022-12-18T00:24:02;-3.70;99.90
32660;DHT22;19064;47.912;12.308;2022-12-18T00:26:32;-3.70;99.90
32660;DHT22;19064;47.912;12.308;2022-12-18T00:29:03;-3.70;99.90
32660;DHT22;19064;47.912;12.308;2022-12-18T00:31:32;-3.70;99.90
32660;DHT22;19064;47.912;12.308;2022-12-18T00:34:02;-3.70;99.90
32660;DHT22;19064;47.912;12.308;2022-12-18T00:36:31;-3.70;99.90
32660;DHT22;19064;47.912;12.308;2022-12-18T00:39:03;-3.70;99.90
32660;DHT22;19064;47.912;12.308;2022-12-18T00:41:32;-3.80;99.90
32660;DHT22;19064;47.912;12.308;2022-12-18T00:44:18;-3.80;99.90
32660;DHT22;19064;47.912;12.308;2022-12-18T00:46:47;-3.80;99.90
32660;DHT22;19064;47.912;12.308;2022-12-18T00:49:18;-3.80;99.90
32660;DHT22;19064;47.912;12.308;2022-12-18T00:51:46;-3.70;99.90
32660;DHT22;19064;47.912;12.308;2022-12-18T00:54:15;-3.80;99.90
32660;DHT22;19064;47.912;12.308;2022-12-18T00:56:43;-3.80;99.90
32660;DHT22;19064;47.912;12.308;2022-12-18T00:59:12;-3.80;99.90
32660;DHT22;19064;47.912;12.308;2022-12-18T01:01:42;-3.80;99.90
32660;DHT22;19064;47.912;12.308;2022-12-18T01:04:10;-3.80;99.90
32660;DHT22;19064;47.912;12.308;2022-12-18T01:06:39;-3.80;99.90
32660;DHT22;19064;47.912;12.308;2022-12-18T01:09:07;-3.90;99.90
32660;DHT22;19064;47.912;12.308;2022-12-18T01:11:35;-3.90;99.90
32660;DHT22;19064;47.912;12.308;2022-12-18T01:14:04;-4.00;99.90
32660;DHT22;19064;47.912;12.308;2022-12-18T01:16:31;-4.00;99.90
32660;DHT22;19064;47.912;12.308;2022-12-18T01:18:57;-4.00;99.90
32660;DHT22;19064;47.912;12.308;2022-12-18T01:21:25;-4.00;99.90
32660;DHT22;19064;47.912;12.308;2022-12-18T01:23:55;-3.90;99.90
32660;DHT22;19064;47.912;12.308;2022-12-18T01:26:23;-4.00;99.90
32660;DHT22;19064;47.912;12.308;2022-12-18T01:28:51;-4.00;99.90
32660;DHT22;19064;47.912;12.308;2022-12-18T01:31:19;-4.00;99.90
32660;DHT22;19064;47.912;12.308;2022-12-18T01:33:47;-4.00;99.90
32660;DHT22;19064;47.912;12.308;2022-12-18T01:36:18;-4.00;99.90
32660;DHT22;19064;47.912;12.308;2022-12-18T01:38:46;-4.00;99.90
32660;DHT22;19064;47.912;12.308;2022-12-18T01:41:15;-4.00;99.90
32660;DHT22;19064;47.912;12.308;2022-12-18T01:43:49;-4.00;99.90
32660;DHT22;19064;47.912;12.308;2022-12-18T01:46:16;-4.00;99.90
32660;DHT22;19064;47.912;12.308;2022-12-18T01:48:46;-4.00;99.90
32660;DHT22;19064;47.912;12.308;2022-12-18T01:51:13;-4.00;99.90
32660;DHT22;19064;47.912;12.308;2022-12-18T01:53:41;-4.00;99.90
32660;DHT22;19064;47.912;12.308;2022-12-18T01:56:15;-4.10;99.90
32660;DHT22;19064;47.912;12.308;2022-12-18T01:58:54;-4.00;99.90
32660;DHT22;19064;47.912;12.308;2022-12-18T02:01:23;-4.00;99.90
32660;DHT22;19064;47.912;12.308;2022-12-18T02:03:52;-4.00;99.90
32660;DHT22;19064;47.912;12.308;2022-12-18T02:06:26;-4.10;99.90
32660;DHT22;19064;47.912;12.308;2022-12-18T02:09:03;-4.10;99.90
32660;DHT22;19064;47.912;12.308;2022-12-18T02:11:42;-4.10;99.90
32660;DHT22;19064;47.912;12.308;2022-12-18T02:14:19;-4.10;99.90
32660;DHT22;19064;47.912;12.308;2022-12-18T02:16:52;-4.10;99.90
32660;DHT22;19064;47.912;12.308;2022-12-18T02:19:41;-4.10;99.90
32660;DHT22;19064;47.912;12.308;2022-12-18T02:22:26;-4.20;99.90
32660;DHT22;19064;47.912;12.308;2022-12-18T02:25:05;-4.20;99.90
32660;DHT22;19064;47.912;12.308;2022-12-18T02:27:41;-4.20;99.90
32660;DHT22;19064;47.912;12.308;2022-12-18T02:30:15;-4.20;99.90
32660;DHT22;19064;47.912;12.308;2022-12-18T02:32:47;-4.20;99.90
32660;DHT22;19064;47.912;12.308;2022-12-18T02:35:20;-4.30;99.90
32660;DHT22;19064;47.912;12.308;2022-12-18T02:37:53;-4.30;99.90
32660;DHT22;19064;47.912;12.308;2022-12-18T02:40:23;-4.30;99.90
32660;DHT22;19064;47.912;12.308;2022-12-18T02:42:53;-4.30;99.90
32660;DHT22;19064;47.912;12.308;2022-12-18T02:45:21;-4.30;99.90
32660;DHT22;19064;47.912;12.308;2022-12-18T02:47:49;-4.30;99.90
32660;DHT22;19064;47.912;12.308;2022-12-18T02:50:22;-4.30;99.90
32660;DHT22;19064;47.912;12.308;2022-12-18T02:53:03;-4.30;99.90
32660;DHT22;19064;47.912;12.308;2022-12-18T02:55:44;-4.40;99.90
32660;DHT22;19064;47.912;12.308;2022-12-18T02:58:19;-4.30;99.90
32660;DHT22;19064;47.912;12.308;2022-12-18T03:00:53;-4.40;99.90
32660;DHT22;19064;47.912;12.308;2022-12-18T03:03:29;-4.40;99.90
32660;DHT22;19064;47.912;12.308;2022-12-18T03:06:01;-4.40;99.90
32660;DHT22;19064;47.912;12.308;2022-12-18T03:08:32;-4.40;99.90
32660;DHT22;19064;47.912;12.308;2022-12-18T03:11:04;-4.40;99.90
32660;DHT22;19064;47.912;12.308;2022-12-18T03:13:39;-4.50;99.90
32660;DHT22;19064;47.912;12.308;2022-12-18T03:16:15;-4.40;99.90
32660;DHT22;19064;47.912;12.308;2022-12-18T03:18:51;-4.50;99.90
32660;DHT22;19064;47.912;12.308;2022-12-18T03:21:29;-4.50;99.90
32660;DHT22;19064;47.912;12.308;2022-12-18T03:24:01;-4.60;99.90
32660;DHT22;19064;47.912;12.308;2022-12-18T03:26:32;-4.60;99.90
32660;DHT22;19064;47.912;12.308;2022-12-18T03:29:06;-4.60;99.90
32660;DHT22;19064;47.912;12.308;2022-12-18T03:31:37;-4.60;99.90
32660;DHT22;19064;47.912;12.308;2022-12-18T03:34:10;-4.60;99.90
32660;DHT22;19064;47.912;12.308;2022-12-18T03:36:39;-4.60;99.90
32660;DHT22;19064;47.912;12.308;2022-12-18T03:39:07;-4.60;99.90
32660;DHT22;19064;47.912;12.308;2022-12-18T03:41:44;-4.70;99.90
32660;DHT22;19064;47.912;12.308;2022-12-18T03:44:17;-4.60;99.90
32660;DHT22;19064;47.912;12.308;2022-12-18T03:46:53;-4.60;99.90
32660;DHT22;19064;47.912;12.308;2022-12-18T03:49:25;-4.60;99.90
32660;DHT22;19064;47.912;12.308;2022-12-18T03:52:01;-4.70;99.90
32660;DHT22;19064;47.912;12.308;2022-12-18T03:54:31;-4.70;99.90
32660;DHT22;19064;47.912;12.308;2022-12-18T03:57:04;-4.70;99.90
32660;DHT22;19064;47.912;12.308;2022-12-18T03:59:46;-4.70;99.90
32660;DHT22;19064;47.912;12.308;2022-12-18T04:02:15;-4.70;99.90
32660;DHT22;19064;47.912;12.308;2022-12-18T04:04:45;-4.70;99.90
32660;DHT22;19064;47.912;12.308;2022-12-18T04:07:16;-4.80;99.90
32660;DHT22;19064;47.912;12.308;2022-12-18T04:09:45;-4.80;99.90
32660;DHT22;19064;47.912;12.308;2022-12-18T04:12:16;-4.90;99.90
32660;DHT22;19064;47.912;12.308;2022-12-18T04:14:46;-4.80;99.90
32660;DHT22;19064;47.912;12.308;2022-12-18T04:17:13;-4.90;99.90
32660;DHT22;19064;47.912;12.308;2022-12-18T04:19:42;-4.90;99.90
32660;DHT22;19064;47.912;12.308;2022-12-18T04:22:10;-5.00;99.90
32660;DHT22;19064;47.912;12.308;2022-12-18T04:24:38;-5.00;99.90
32660;DHT22;19064;47.912;12.308;2022-12-18T04:27:08;-5.00;99.90
32660;DHT22;19064;47.912;12.308;2022-12-18T04:29:36;-5.00;99.90
32660;DHT22;19064;47.912;12.308;2022-12-18T04:32:06;-5.00;99.90
32660;DHT22;19064;47.912;12.308;2022-12-18T04:34:33;-5.10;99.90
32660;DHT22;19064;47.912;12.308;2022-12-18T04:37:01;-4.80;99.90
32660;DHT22;19064;47.912;12.308;2022-12-18T04:39:29;-5.00;99.90
32660;DHT22;19064;47.912;12.308;2022-12-18T04:41:57;-5.00;99.90
32660;DHT22;19064;47.912;12.308;2022-12-18T04:44:28;-5.00;99.90
32660;DHT22;19064;47.912;12.308;2022-12-18T04:46:55;-5.00;99.90
32660;DHT22;19064;47.912;12.308;2022-12-18T04:49:25;-5.10;99.90
32660;DHT22;19064;47.912;12.308;2022-12-18T04:51:53;-5.10;99.90
32660;DHT22;19064;47.912;12.308;2022-12-18T04:54:21;-5.10;99.90
32660;DHT22;19064;47.912;12.308;2022-12-18T04:56:50;-5.30;99.90
32660;DHT22;19064;47.912;12.308;2022-12-18T04:59:18;-5.20;99.90
32660;DHT22;19064;47.912;12.308;2022-12-18T05:01:46;-5.20;99.90
32660;DHT22;19064;47.912;12.308;2022-12-18T05:04:17;-5.20;99.90
32660;DHT22;19064;47.912;12.308;2022-12-18T05:06:46;-5.20;99.90
32660;DHT22;19064;47.912;12.308;2022-12-18T05:09:14;-5.10;99.90
32660;DHT22;19064;47.912;12.308;2022-12-18T05:11:42;-5.20;99.90
32660;DHT22;19064;47.912;12.308;2022-12-18T05:14:10;-5.10;99.90
32660;DHT22;19064;47.912;12.308;2022-12-18T05:16:38;-5.10;99.90
32660;DHT22;19064;47.912;12.308;2022-12-18T05:19:06;-5.20;99.90
32660;DHT22;19064;47.912;12.308;2022-12-18T05:21:34;-5.30;99.90
32660;DHT22;19064;47.912;12.308;2022-12-18T05:24:15;-5.30;99.90
32660;DHT22;19064;47.912;12.308;2022-12-18T05:26:43;-5.40;99.90
32660;DHT22;19064;47.912;12.308;2022-12-18T05:29:12;-5.30;99.90
32660;DHT22;19064;47.912;12.308;2022-12-18T05:31:39;-5.30;99.90
32660;DHT22;19064;47.912;12.308;2022-12-18T05:34:08;-5.30;99.90
32660;DHT22;19064;47.912;12.308;2022-12-18T05:36:36;-5.40;99.90
32660;DHT22;19064;47.912;12.308;2022-12-18T05:39:05;-5.40;99.90
32660;DHT22;19064;47.912;12.308;2022-12-18T05:41:41;-5.40;99.90
32660;DHT22;19064;47.912;12.308;2022-12-18T05:44:08;-5.50;99.90
32660;DHT22;19064;47.912;12.308;2022-12-18T05:46:36;-5.50;99.90
32660;DHT22;19064;47.912;12.308;2022-12-18T05:49:11;-5.50;99.90
32660;DHT22;19064;47.912;12.308;2022-12-18T05:51:40;-5.50;99.90
32660;DHT22;19064;47.912;12.308;2022-12-18T05:54:09;-5.60;99.90
32660;DHT22;19064;47.912;12.308;2022-12-18T05:56:37;-5.60;99.90
32660;DHT22;19064;47.912;12.308;2022-12-18T05:59:05;-5.70;99.90
32660;DHT22;19064;47.912;12.308;2022-12-18T06:01:33;-5.70;99.90
32660;DHT22;19064;47.912;12.308;2022-12-18T06:04:01;-5.70;99.90
32660;DHT22;19064;47.912;12.308;2022-12-18T06:06:29;-5.70;99.90
32660;DHT22;19064;47.912;12.308;2022-12-18T06:08:57;-5.70;99.90
32660;DHT22;19064;47.912;12.308;2022-12-18T06:11:27;-5.70;99.90
32660;DHT22;19064;47.912;12.308;2022-12-18T06:13:56;-5.70;99.90
32660;DHT22;19064;47.912;12.308;2022-12-18T06:16:26;-5.60;99.90
32660;DHT22;19064;47.912;12.308;2022-12-18T06:18:56;-5.60;99.90
32660;DHT22;19064;47.912;12.308;2022-12-18T06:21:24;-5.60;99.90
32660;DHT22;19064;47.912;12.308;2022-12-18T06:23:52;-5.60;99.90
32660;DHT22;19064;47.912;12.308;2022-12-18T06:26:20;-5.60;99.90
32660;DHT22;19064;47.912;12.308;2022-12-18T06:28:49;-5.60;99.90
32660;DHT22;19064;47.912;12.308;2022-12-18T06:31:17;-5.60;99.90
32660;DHT22;19064;47.912;12.308;2022-12-18T06:33:47;-5.50;99.90
32660;DHT22;19064;47.912;12.308;2022-12-18T06:36:15;-5.60;99.90
32660;DHT22;19064;47.912;12.308;2022-12-18T06:38:44;-5.60;99.90
32660;DHT22;19064;47.912;12.308;2022-12-18T06:41:14;-5.60;99.90
32660;DHT22;19064;47.912;12.308;2022-12-18T06:43:41;-5.60;99.90
32660;DHT22;19064;47.912;12.308;2022-12-18T06:46:11;-5.60;99.90
32660;DHT22;19064;47.912;12.308;2022-12-18T06:48:39;-5.50;99.90
32660;DHT22;19064;47.912;12.308;2022-12-18T06:51:10;-5.50;99.90
32660;DHT22;19064;47.912;12.308;2022-12-18T06:53:40;-5.40;99.90
32660;DHT22;19064;47.912;12.308;2022-12-18T06:56:09;-5.40;99.90
32660;DHT22;19064;47.912;12.308;2022-12-18T06:58:37;-5.50;99.90
32660;DHT22;19064;47.912;12.308;2022-12-18T07:01:07;-5.40;99.90
32660;DHT22;19064;47.912;12.308;2022-12-18T07:03:37;-5.50;99.90
32660;DHT22;19064;47.912;12.308;2022-12-18T07:06:11;-5.50;99.90
32660;DHT22;19064;47.912;12.308;2022-12-18T07:08:40;-5.40;99.90
32660;DHT22;19064;47.912;12.308;2022-12-18T07:11:07;-5.40;99.90
32660;DHT22;19064;47.912;12.308;2022-12-18T07:13:38;-5.40;99.90
32660;DHT22;19064;47.912;12.308;2022-12-18T07:16:09;-5.40;99.90
32660;DHT22;19064;47.912;12.308;2022-12-18T07:18:38;-5.40;99.90
32660;DHT22;19064;47.912;12.308;2022-12-18T07:21:08;-5.40;99.90
32660;DHT22;19064;47.912;12.308;2022-12-18T07:23:36;-5.40;99.90
32660;DHT22;19064;47.912;12.308;2022-12-18T07:26:06;-5.30;99.90
32660;DHT22;19064;47.912;12.308;2022-12-18T07:28:38;-5.30;99.90
32660;DHT22;19064;47.912;12.308;2022-12-18T07:31:09;-5.40;99.90
32660;DHT22;19064;47.912;12.308;2022-12-18T07:33:39;-5.40;99.90
32660;DHT22;19064;47.912;12.308;2022-12-18T07:36:09;-5.30;99.90
32660;DHT22;19064;47.912;12.308;2022-12-18T07:38:37;-5.30;99.90
32660;DHT22;19064;47.912;12.308;2022-12-18T07:41:07;-5.30;99.90
32660;DHT22;19064;47.912;12.308;2022-12-18T07:43:37;-5.30;99.90
32660;DHT22;19064;47.912;12.308;2022-12-18T07:46:05;-5.20;99.90
32660;DHT22;19064;47.912;12.308;2022-12-18T07:48:33;-5.20;99.90
32660;DHT22;19064;47.912;12.308;2022-12-18T07:51:07;-5.20;99.90
32660;DHT22;19064;47.912;12.308;2022-12-18T07:53:35;-5.30;99.90
32660;DHT22;19064;47.912;12.308;2022-12-18T07:56:05;-5.30;99.90
32660;DHT22;19064;47.912;12.308;2022-12-18T07:58:34;-5.40;99.90
32660;DHT22;19064;47.912;12.308;2022-12-18T08:01:08;-5.60;99.90
32660;DHT22;19064;47.912;12.308;2022-12-18T08:03:37;-5.50;99.90
32660;DHT22;19064;47.912;12.308;2022-12-18T08:06:09;-5.50;99.90
32660;DHT22;19064;47.912;12.308;2022-12-18T08:08:36;-5.50;99.90
32660;DHT22;19064;47.912;12.308;2022-12-18T08:11:03;-5.50;99.90
32660;DHT22;19064;47.912;12.308;2022-12-18T08:13:30;-5.50;99.90
32660;DHT22;19064;47.912;12.308;2022-12-18T08:16:00;-5.50;99.90
32660;DHT22;19064;47.912;12.308;2022-12-18T08:18:29;-5.30;99.90
32660;DHT22;19064;47.912;12.308;2022-12-18T08:21:09;-5.30;99.90
32660;DHT22;19064;47.912;12.308;2022-12-18T08:23:37;-5.20;99.90
32660;DHT22;19064;47.912;12.308;2022-12-18T08:26:06;-5.20;99.90
32660;DHT22;19064;47.912;12.308;2022-12-18T08:28:35;-5.20;99.90
32660;DHT22;19064;47.912;12.308;2022-12-18T08:31:04;-5.10;99.90
32660;DHT22;19064;47.912;12.308;2022-12-18T08:33:32;-5.10;99.90
32660;DHT22;19064;47.912;12.308;2022-12-18T08:36:01;-5.10;99.90
32660;DHT22;19064;47.912;12.308;2022-12-18T08:38:31;-5.00;99.90
32660;DHT22;19064;47.912;12.308;2022-12-18T08:40:59;-5.00;99.90
32660;DHT22;19064;47.912;12.308;2022-12-18T08:43:28;-4.80;99.90
32660;DHT22;19064;47.912;12.308;2022-12-18T08:46:19;-4.80;99.90
32660;DHT22;19064;47.912;12.308;2022-12-18T08:48:47;-4.80;99.90
32660;DHT22;19064;47.912;12.308;2022-12-18T08:51:16;-4.70;99.90
32660;DHT22;19064;47.912;12.308;2022-12-18T08:53:46;-4.70;99.90
32660;DHT22;19064;47.912;12.308;2022-12-18T08:56:14;-4.60;99.90
32660;DHT22;19064;47.912;12.308;2022-12-18T08:58:43;-4.60;99.90
32660;DHT22;19064;47.912;12.308;2022-12-18T09:01:11;-4.50;99.90
32660;DHT22;19064;47.912;12.308;2022-12-18T09:03:40;-4.50;99.90
32660;DHT22;19064;47.912;12.308;2022-12-18T09:06:08;-4.50;99.90
32660;DHT22;19064;47.912;12.308;2022-12-18T09:08:36;-4.60;99.90
32660;DHT22;19064;47.912;12.308;2022-12-18T09:11:13;-4.50;99.90
32660;DHT22;19064;47.912;12.308;2022-12-18T09:13:41;-4.50;99.90
32660;DHT22;19064;47.912;12.308;2022-12-18T09:16:09;-4.40;99.90
32660;DHT22;19064;47.912;12.308;2022-12-18T09:18:37;-4.30;99.90
32660;DHT22;19064;47.912;12.308;2022-12-18T09:21:10;-4.20;99.90
32660;DHT22;19064;47.912;12.308;2022-12-18T09:23:39;-4.20;99.90
32660;DHT22;19064;47.912;12.308;2022-12-18T09:26:10;-4.20;99.90
32660;DHT22;19064;47.912;12.308;2022-12-18T09:28:38;-4.30;99.90
32660;DHT22;19064;47.912;12.308;2022-12-18T09:31:07;-4.30;99.90
32660;DHT22;19064;47.912;12.308;2022-12-18T09:33:36;-4.40;99.90
32660;DHT22;19064;47.912;12.308;2022-12-18T09:36:09;-4.40;99.90
32660;DHT22;19064;47.912;12.308;2022-12-18T09:38:37;-4.40;99.90
32660;DHT22;19064;47.912;12.308;2022-12-18T09:41:19;-4.50;99.90
32660;DHT22;19064;47.912;12.308;2022-12-18T09:43:55;-4.50;99.90
32660;DHT22;19064;47.912;12.308;2022-12-18T09:46:28;-4.40;99.90
32660;DHT22;19064;47.912;12.308;2022-12-18T09:48:59;-4.40;99.90
32660;DHT22;19064;47.912;12.308;2022-12-18T09:51:32;-4.40;99.90
32660;DHT22;19064;47.912;12.308;2022-12-18T09:54:05;-4.30;99.90
32660;DHT22;19064;47.912;12.308;2022-12-18T09:56:41;-4.30;99.90
32660;DHT22;19064;47.912;12.308;2022-12-18T09:59:18;-4.30;99.90
32660;DHT22;19064;47.912;12.308;2022-12-18T10:01:45;-4.20;99.90
32660;DHT22;19064;47.912;12.308;2022-12-18T10:04:12;-4.30;99.90
32660;DHT22;19064;47.912;12.308;2022-12-18T10:06:43;-4.20;99.90
32660;DHT22;19064;47.912;12.308;2022-12-18T10:09:17;-4.30;99.90
32660;DHT22;19064;47.912;12.308;2022-12-18T10:11:54;-4.40;99.90
32660;DHT22;19064;47.912;12.308;2022-12-18T10:14:32;-4.40;99.90
32660;DHT22;19064;47.912;12.308;2022-12-18T10:17:07;-4.30;99.90
32660;DHT22;19064;47.912;12.308;2022-12-18T10:19:43;-4.20;99.90
32660;DHT22;19064;47.912;12.308;2022-12-18T10:22:28;-4.10;99.90
32660;DHT22;19064;47.912;12.308;2022-12-18T10:25:01;-4.00;99.90
32660;DHT22;19064;47.912;12.308;2022-12-18T10:27:32;-4.00;99.90
32660;DHT22;19064;47.912;12.308;2022-12-18T10:30:04;-3.90;99.90
32660;DHT22;19064;47.912;12.308;2022-12-18T10:32:36;-4.00;99.90
32660;DHT22;19064;47.912;12.308;2022-12-18T10:35:04;-3.90;99.90
32660;DHT22;19064;47.912;12.308;2022-12-18T10:37:32;-3.80;99.90
32660;DHT22;19064;47.912;12.308;2022-12-18T10:40:09;-3.80;99.90
32660;DHT22;19064;47.912;12.308;2022-12-18T10:42:39;-3.80;99.90
32660;DHT22;19064;47.912;12.308;2022-12-18T10:45:10;-3.90;99.90
32660;DHT22;19064;47.912;12.308;2022-12-18T10:47:42;-3.80;99.90
32660;DHT22;19064;47.912;12.308;2022-12-18T10:50:19;-3.70;99.90
32660;DHT22;19064;47.912;12.308;2022-12-18T10:52:54;-3.60;99.90
32660;DHT22;19064;47.912;12.308;2022-12-18T10:55:22;-3.50;99.90
32660;DHT22;19064;47.912;12.308;2022-12-18T10:57:54;-3.70;99.90
32660;DHT22;19064;47.912;12.308;2022-12-18T11:00:27;-3.70;99.90
32660;DHT22;19064;47.912;12.308;2022-12-18T11:02:57;-3.70;99.90
32660;DHT22;19064;47.912;12.308;2022-12-18T11:05:28;-3.70;99.90
32660;DHT22;19064;47.912;12.308;2022-12-18T11:07:57;-3.70;99.90
32660;DHT22;19064;47.912;12.308;2022-12-18T11:10:30;-3.60;99.90
32660;DHT22;19064;47.912;12.308;2022-12-18T11:13:11;-3.60;99.90
32660;DHT22;19064;47.912;12.308;2022-12-18T11:15:42;-3.60;99.90
32660;DHT22;19064;47.912;12.308;2022-12-18T11:18:17;-3.70;99.90
32660;DHT22;19064;47.912;12.308;2022-12-18T11:20:53;-3.70;99.90
32660;DHT22;19064;47.912;12.308;2022-12-18T11:23:22;-3.70;99.90
32660;DHT22;19064;47.912;12.308;2022-12-18T11:25:58;-3.80;99.90
32660;DHT22;19064;47.912;12.308;2022-12-18T11:28:35;-3.80;99.90
32660;DHT22;19064;47.912;12.308;2022-12-18T11:31:28;-3.70;99.90
32660;DHT22;19064;47.912;12.308;2022-12-18T11:34:07;-3.70;99.90
32660;DHT22;19064;47.912;12.308;2022-12-18T11:36:46;-3.70;99.90
32660;DHT22;19064;47.912;12.308;2022-12-18T11:39:18;-3.70;99.90
32660;DHT22;19064;47.912;12.308;2022-12-18T11:41:53;-3.60;99.90
32660;DHT22;19064;47.912;12.308;2022-12-18T11:44:47;-3.70;99.90
32660;DHT22;19064;47.912;12.308;2022-12-18T11:47:24;-3.60;99.90
32660;DHT22;19064;47.912;12.308;2022-12-18T11:50:00;-3.60;99.90
32660;DHT22;19064;47.912;12.308;2022-12-18T11:52:33;-3.50;99.90
32660;DHT22;19064;47.912;12.308;2022-12-18T11:55:11;-3.40;99.90
32660;DHT22;19064;47.912;12.308;2022-12-18T11:57:46;-3.40;99.90
32660;DHT22;19064;47.912;12.308;2022-12-18T12:00:20;-3.50;99.90
32660;DHT22;19064;47.912;12.308;2022-12-18T12:03:12;-3.40;99.90
32660;DHT22;19064;47.912;12.308;2022-12-18T12:05:55;-3.50;99.90
32660;DHT22;19064;47.912;12.308;2022-12-18T12:08:35;-3.50;99.90
32660;DHT22;19064;47.912;12.308;2022-12-18T12:11:16;-3.40;99.90
32660;DHT22;19064;47.912;12.308;2022-12-18T12:14:06;-3.50;99.90
32660;DHT22;19064;47.912;12.308;2022-12-18T12:16:48;-3.40;99.90
32660;DHT22;19064;47.912;12.308;2022-12-18T12:19:30;-3.50;99.90
32660;DHT22;19064;47.912;12.308;2022-12-18T12:22:07;-3.40;99.90
32660;DHT22;19064;47.912;12.308;2022-12-18T12:24:51;-3.30;99.90
32660;DHT22;19064;47.912;12.308;2022-12-18T12:27:32;-3.30;99.90
32660;DHT22;19064;47.912;12.308;2022-12-18T12:30:20;-3.40;99.90
32660;DHT22;19064;47.912;12.308;2022-12-18T12:33:05;-3.50;99.90
32660;DHT22;19064;47.912;12.308;2022-12-18T12:35:46;-3.40;99.90
32660;DHT22;19064;47.912;12.308;2022-12-18T12:38:17;-3.50;99.90
32660;DHT22;19064;47.912;12.308;2022-12-18T12:40:51;-3.50;99.90
32660;DHT22;19064;47.912;12.308;2022-12-18T12:43:30;-3.60;99.90
32660;DHT22;19064;47.912;12.308;2022-12-18T12:46:00;-3.70;99.90
32660;DHT22;19064;47.912;12.308;2022-12-18T12:48:37;-3.50;99.90
32660;DHT22;19064;47.912;12.308;2022-12-18T12:51:13;-3.50;99.90
32660;DHT22;19064;47.912;12.308;2022-12-18T12:53:42;-3.70;99.90
32660;DHT22;19064;47.912;12.308;2022-12-18T12:56:17;-3.80;99.90
32660;DHT22;19064;47.912;12.308;2022-12-18T12:58:56;-3.90;99.90
32660;DHT22;19064;47.912;12.308;2022-12-18T13:01:32;-3.80;99.90
32660;DHT22;19064;47.912;12.308;2022-12-18T13:04:14;-3.80;99.90
32660;DHT22;19064;47.912;12.308;2022-12-18T13:06:49;-3.70;99.90
32660;DHT22;19064;47.912;12.308;2022-12-18T13:09:21;-3.80;99.90
32660;DHT22;19064;47.912;12.308;2022-12-18T13:11:51;-4.00;99.90
32660;DHT22;19064;47.912;12.308;2022-12-18T13:14:39;-4.10;99.90
32660;DHT22;19064;47.912;12.308;2022-12-18T13:17:29;-4.20;99.90
32660;DHT22;19064;47.912;12.308;2022-12-18T13:20:10;-4.30;99.90
32660;DHT22;19064;47.912;12.308;2022-12-18T13:22:43;-4.30;99.90
32660;DHT22;19064;47.912;12.308;2022-12-18T13:25:32;-4.40;99.90
32660;DHT22;19064;47.912;12.308;2022-12-18T13:28:12;-4.50;99.90
32660;DHT22;19064;47.912;12.308;2022-12-18T13:30:53;-4.50;99.90
32660;DHT22;19064;47.912;12.308;2022-12-18T13:33:42;-4.50;99.90
32660;DHT22;19064;47.912;12.308;2022-12-18T13:36:27;-4.50;99.90
32660;DHT22;19064;47.912;12.308;2022-12-18T13:39:24;-4.50;99.90
32660;DHT22;19064;47.912;12.308;2022-12-18T13:41:54;-4.30;99.90
32660;DHT22;19064;47.912;12.308;2022-12-18T13:44:58;-4.10;99.90
32660;DHT22;19064;47.912;12.308;2022-12-18T13:47:32;-4.00;99.90
32660;DHT22;19064;47.912;12.308;2022-12-18T13:50:10;-4.00;99.90
32660;DHT22;19064;47.912;12.308;2022-12-18T13:52:52;-4.00;99.90
32660;DHT22;19064;47.912;12.308;2022-12-18T13:55:22;-3.90;99.90
32660;DHT22;19064;47.912;12.308;2022-12-18T13:58:04;-4.00;99.90
32660;DHT22;19064;47.912;12.308;2022-12-18T14:00:34;-4.00;99.90
32660;DHT22;19064;47.912;12.308;2022-12-18T14:03:15;-4.10;99.90
32660;DHT22;19064;47.912;12.308;2022-12-18T14:05:52;-4.00;99.90
32660;DHT22;19064;47.912;12.308;2022-12-18T14:08:25;-4.20;99.90
32660;DHT22;19064;47.912;12.308;2022-12-18T14:10:55;-4.20;99.90
32660;DHT22;19064;47.912;12.308;2022-12-18T14:13:27;-4.20;99.90
32660;DHT22;19064;47.912;12.308;2022-12-18T14:15:57;-4.30;99.90
32660;DHT22;19064;47.912;12.308;2022-12-18T14:18:32;-4.40;99.90
32660;DHT22;19064;47.912;12.308;2022-12-18T14:21:03;-4.20;99.90
32660;DHT22;19064;47.912;12.308;2022-12-18T14:23:37;-4.20;99.90
32660;DHT22;19064;47.912;12.308;2022-12-18T14:26:21;-4.30;99.90
32660;DHT22;19064;47.912;12.308;2022-12-18T14:28:49;-4.30;99.90
32660;DHT22;19064;47.912;12.308;2022-12-18T14:31:18;-4.40;99.90
32660;DHT22;19064;47.912;12.308;2022-12-18T14:33:48;-4.50;99.90
32660;DHT22;19064;47.912;12.308;2022-12-18T14:36:20;-4.60;99.90
32660;DHT22;19064;47.912;12.308;2022-12-18T14:38:52;-4.60;99.90
32660;DHT22;19064;47.912;12.308;2022-12-18T14:41:21;-4.80;99.90
32660;DHT22;19064;47.912;12.308;2022-12-18T14:43:50;-4.80;99.90
32660;DHT22;19064;47.912;12.308;2022-12-18T14:46:34;-4.80;99.90
32660;DHT22;19064;47.912;12.308;2022-12-18T14:49:05;-4.80;99.90
32660;DHT22;19064;47.912;12.308;2022-12-18T14:51:47;-4.80;99.90
32660;DHT22;19064;47.912;12.308;2022-12-18T14:54:20;-4.80;99.90
32660;DHT22;19064;47.912;12.308;2022-12-18T14:56:49;-4.80;99.90
32660;DHT22;19064;47.912;12.308;2022-12-18T14:59:31;-4.90;99.90
32660;DHT22;19064;47.912;12.308;2022-12-18T15:02:04;-5.00;99.90
32660;DHT22;19064;47.912;12.308;2022-12-18T15:04:39;-5.10;99.90
32660;DHT22;19064;47.912;12.308;2022-12-18T15:07:18;-5.20;99.90
32660;DHT22;19064;47.912;12.308;2022-12-18T15:10:03;-5.20;99.90
32660;DHT22;19064;47.912;12.308;2022-12-18T15:12:39;-5.10;99.90
32660;DHT22;19064;47.912;12.308;2022-12-18T15:18:13;-5.10;99.90
32660;DHT22;19064;47.912;12.308;2022-12-18T15:20:42;-5.10;99.90
32660;DHT22;19064;47.912;12.308;2022-12-18T15:23:21;-5.10;99.90
32660;DHT22;19064;47.912;12.308;2022-12-18T15:25:55;-5.10;99.90
32660;DHT22;19064;47.912;12.308;2022-12-18T15:28:27;-5.20;99.90
32660;DHT22;19064;47.912;12.308;2022-12-18T15:31:03;-5.20;99.90
32660;DHT22;19064;47.912;12.308;2022-12-18T15:33:33;-5.20;99.90
32660;DHT22;19064;47.912;12.308;2022-12-18T15:36:01;-5.20;99.90
32660;DHT22;19064;47.912;12.308;2022-12-18T15:38:30;-5.40;99.90
32660;DHT22;19064;47.912;12.308;2022-12-18T15:41:00;-5.70;99.90
32660;DHT22;19064;47.912;12.308;2022-12-18T15:43:28;-5.60;99.90
32660;DHT22;19064;47.912;12.308;2022-12-18T15:46:01;-5.60;99.90
32660;DHT22;19064;47.912;12.308;2022-12-18T15:48:28;-5.50;99.90
32660;DHT22;19064;47.912;12.308;2022-12-18T15:50:56;-5.40;99.90